sensor_id;sensor_type;location;lat;lon;timestamp;P1;durP1;ratioP1;P2;durP2;ratioP2
27921;SDS011;15261;50.356;10.340;2023-12-14T00:01:13;28.25;;;12.45;;
27921;SDS011;15261;50.356;10.340;2023-12-14T00:06:32;16.83;;;12.55;;
27921;SDS011;15261;50.356;10.340;2023-12-14T00:08:58;18.35;;;11.63;;
27921;SDS011;15261;50.356;10.340;2023-12-14T00:11:24;15.57;;;11.82;;
27921;SDS011;15261;50.356;10.340;2023-12-14T00:13:49;11.27;;;10.07;;
27921;SDS011;15261;50.356;10.340;2023-12-14T00:16:15;10.70;;;9.57;;
27921;SDS011;15261;50.356;10.340;2023-12-14T00:18:40;12.70;;;10.18;;
27921;SDS011;15261;50.356;10.340;2023-12-14T00:21:06;11.50;;;10.30;;
27921;SDS011;15261;50.356;10.340;2023-12-14T00:23:33;12.80;;;11.32;;
27921;SDS011;15261;50.356;10.340;2023-12-14T00:25:59;13.88;;;11.50;;
27921;SDS011;15261;50.356;10.340;2023-12-14T00:28:24;13.82;;;12.13;;
27921;SDS011;15261;50.356;10.340;2023-12-14T00:30:50;14.50;;;13.00;;
27921;SDS011;15261;50.356;10.340;2023-12-14T00:33:16;18.08;;;13.85;;
27921;SDS011;15261;50.356;10.340;2023-12-14T00:35:41;26.40;;;13.65;;
27921;SDS011;15261;50.356;10.340;2023-12-14T00:38:07;14.38;;;12.88;;
27921;SDS011;15261;50.356;10.340;2023-12-14T00:40:32;14.45;;;12.95;;
27921;SDS011;15261;50.356;10.340;2023-12-14T00:42:58;17.05;;;13.45;;
27921;SDS011;15261;50.356;10.340;2023-12-14T00:45:23;13.63;;;12.07;;
27921;SDS011;15261;50.356;10.340;2023-12-14T00:47:49;15.43;;;13.05;;
27921;SDS011;15261;50.356;10.340;2023-12-14T00:50:14;15.45;;;13.35;;
27921;SDS011;15261;50.356;10.340;2023-12-14T00:52:40;27.13;;;14.57;;
27921;SDS011;15261;50.356;10.340;2023-12-14T00:55:05;30.27;;;13.95;;
27921;SDS011;15261;50.356;10.340;2023-12-14T00:57:31;24.58;;;13.95;;
27921;SDS011;15261;50.356;10.340;2023-12-14T00:59:57;17.17;;;13.10;;
27921;SDS011;15261;50.356;10.340;2023-12-14T01:02:22;150.25;;;15.77;;
27921;SDS011;15261;50.356;10.340;2023-12-14T01:04:48;56.80;;;13.25;;
27921;SDS011;15261;50.356;10.340;2023-12-14T01:07:13;39.15;;;14.68;;
27921;SDS011;15261;50.356;10.340;2023-12-14T01:09:39;142.82;;;15.52;;
27921;SDS011;15261;50.356;10.340;2023-12-14T01:12:04;57.53;;;14.38;;
27921;SDS011;15261;50.356;10.340;2023-12-14T01:14:30;220.20;;;15.73;;
27921;SDS011;15261;50.356;10.340;2023-12-14T01:16:55;151.18;;;15.50;;
27921;SDS011;15261;50.356;10.340;2023-12-14T01:19:21;308.43;;;16.80;;
27921;SDS011;15261;50.356;10.340;2023-12-14T01:21:47;62.13;;;14.18;;
27921;SDS011;15261;50.356;10.340;2023-12-14T01:24:15;29.30;;;11.30;;
27921;SDS011;15261;50.356;10.340;2023-12-14T01:26:41;30.60;;;9.53;;
27921;SDS011;15261;50.356;10.340;2023-12-14T01:29:06;56.05;;;9.60;;
27921;SDS011;15261;50.356;10.340;2023-12-14T01:31:32;39.78;;;10.25;;
27921;SDS011;15261;50.356;10.340;2023-12-14T01:33:59;125.93;;;11.37;;
27921;SDS011;15261;50.356;10.340;2023-12-14T01:36:25;47.63;;;10.48;;
27921;SDS011;15261;50.356;10.340;2023-12-14T01:38:51;71.75;;;9.90;;
27921;SDS011;15261;50.356;10.340;2023-12-14T01:41:17;22.20;;;8.95;;
27921;SDS011;15261;50.356;10.340;2023-12-14T01:43:43;31.05;;;7.85;;
27921;SDS011;15261;50.356;10.340;2023-12-14T01:46:09;10.37;;;7.33;;
27921;SDS011;15261;50.356;10.340;2023-12-14T01:48:35;9.13;;;6.83;;
27921;SDS011;15261;50.356;10.340;2023-12-14T01:51:00;6.90;;;6.30;;
27921;SDS011;15261;50.356;10.340;2023-12-14T01:53:26;6.57;;;5.97;;
27921;SDS011;15261;50.356;10.340;2023-12-14T01:55:51;7.43;;;6.67;;
27921;SDS011;15261;50.356;10.340;2023-12-14T01:58:17;11.53;;;7.17;;
27921;SDS011;15261;50.356;10.340;2023-12-14T02:43:42;9.47;;;8.20;;
27921;SDS011;15261;50.356;10.340;2023-12-14T02:46:08;9.20;;;8.40;;
27921;SDS011;15261;50.356;10.340;2023-12-14T02:48:33;11.88;;;9.07;;
27921;SDS011;15261;50.356;10.340;2023-12-14T02:50:59;17.20;;;8.43;;
27921;SDS011;15261;50.356;10.340;2023-12-14T02:53:25;15.85;;;8.45;;
27921;SDS011;15261;50.356;10.340;2023-12-14T02:55:51;35.25;;;9.45;;
27921;SDS011;15261;50.356;10.340;2023-12-14T02:58:16;50.90;;;9.07;;
27921;SDS011;15261;50.356;10.340;2023-12-14T03:00:43;18.50;;;9.33;;
27921;SDS011;15261;50.356;10.340;2023-12-14T03:03:08;8.50;;;7.70;;
27921;SDS011;15261;50.356;10.340;2023-12-14T03:05:34;9.47;;;8.43;;
27921;SDS011;15261;50.356;10.340;2023-12-14T03:07:59;14.10;;;8.40;;
27921;SDS011;15261;50.356;10.340;2023-12-14T03:10:25;9.98;;;8.10;;
27921;SDS011;15261;50.356;10.340;2023-12-14T03:12:50;9.35;;;8.35;;
27921;SDS011;15261;50.356;10.340;2023-12-14T03:15:17;9.97;;;8.87;;
27921;SDS011;15261;50.356;10.340;2023-12-14T03:20:34;9.17;;;8.37;;
27921;SDS011;15261;50.356;10.340;2023-12-14T03:22:59;10.27;;;9.37;;
27921;SDS011;15261;50.356;10.340;2023-12-14T03:25:25;9.77;;;8.93;;
27921;SDS011;15261;50.356;10.340;2023-12-14T03:27:50;9.73;;;8.83;;
27921;SDS011;15261;50.356;10.340;2023-12-14T03:30:16;10.07;;;9.17;;
27921;SDS011;15261;50.356;10.340;2023-12-14T03:32:41;9.27;;;8.47;;
27921;SDS011;15261;50.356;10.340;2023-12-14T03:35:07;9.10;;;8.30;;
27921;SDS011;15261;50.356;10.340;2023-12-14T03:37:33;10.47;;;9.30;;
27921;SDS011;15261;50.356;10.340;2023-12-14T03:39:59;9.47;;;8.67;;
27921;SDS011;15261;50.356;10.340;2023-12-14T03:42:25;8.77;;;8.07;;
27921;SDS011;15261;50.356;10.340;2023-12-14T03:44:51;8.33;;;7.63;;
27921;SDS011;15261;50.356;10.340;2023-12-14T03:47:16;9.03;;;8.23;;
27921;SDS011;15261;50.356;10.340;2023-12-14T03:49:42;9.33;;;8.53;;
27921;SDS011;15261;50.356;10.340;2023-12-14T03:52:08;8.85;;;8.05;;
27921;SDS011;15261;50.356;10.340;2023-12-14T03:54:34;8.85;;;8.07;;
27921;SDS011;15261;50.356;10.340;2023-12-14T03:57:00;9.20;;;8.30;;
27921;SDS011;15261;50.356;10.340;2023-12-14T03:59:25;9.07;;;8.27;;
27921;SDS011;15261;50.356;10.340;2023-12-14T04:01:51;9.00;;;8.20;;
27921;SDS011;15261;50.356;10.340;2023-12-14T04:04:16;11.70;;;10.52;;
27921;SDS011;15261;50.356;10.340;2023-12-14T04:06:45;10.40;;;9.35;;
27921;SDS011;15261;50.356;10.340;2023-12-14T04:09:11;10.02;;;9.13;;
27921;SDS011;15261;50.356;10.340;2023-12-14T04:11:36;9.90;;;9.00;;
27921;SDS011;15261;50.356;10.340;2023-12-14T04:14:02;9.88;;;8.98;;
27921;SDS011;15261;50.356;10.340;2023-12-14T04:16:27;9.10;;;8.30;;
27921;SDS011;15261;50.356;10.340;2023-12-14T04:18:53;9.35;;;8.55;;
27921;SDS011;15261;50.356;10.340;2023-12-14T04:21:18;9.27;;;8.47;;
27921;SDS011;15261;50.356;10.340;2023-12-14T04:23:44;8.38;;;7.68;;
27921;SDS011;15261;50.356;10.340;2023-12-14T04:26:10;9.05;;;8.15;;
27921;SDS011;15261;50.356;10.340;2023-12-14T04:28:36;10.00;;;8.88;;
27921;SDS011;15261;50.356;10.340;2023-12-14T04:31:02;10.63;;;9.67;;
27921;SDS011;15261;50.356;10.340;2023-12-14T04:33:27;9.70;;;8.80;;
27921;SDS011;15261;50.356;10.340;2023-12-14T04:35:53;12.27;;;11.07;;
27921;SDS011;15261;50.356;10.340;2023-12-14T04:38:18;10.80;;;9.80;;
27921;SDS011;15261;50.356;10.340;2023-12-14T04:40:44;9.93;;;9.03;;
27921;SDS011;15261;50.356;10.340;2023-12-14T04:43:09;9.10;;;8.30;;
27921;SDS011;15261;50.356;10.340;2023-12-14T04:45:35;9.60;;;8.73;;
27921;SDS011;15261;50.356;10.340;2023-12-14T04:48:00;8.85;;;8.05;;
27921;SDS011;15261;50.356;10.340;2023-12-14T04:50:26;9.10;;;8.23;;
27921;SDS011;15261;50.356;10.340;2023-12-14T04:52:51;9.45;;;8.55;;
27921;SDS011;15261;50.356;10.340;2023-12-14T04:55:17;10.95;;;9.48;;
27921;SDS011;15261;50.356;10.340;2023-12-14T04:57:42;12.57;;;11.30;;
27921;SDS011;15261;50.356;10.340;2023-12-14T05:00:09;12.17;;;10.80;;
27921;SDS011;15261;50.356;10.340;2023-12-14T05:02:35;10.50;;;9.40;;
27921;SDS011;15261;50.356;10.340;2023-12-14T05:05:00;12.47;;;10.70;;
27921;SDS011;15261;50.356;10.340;2023-12-14T05:07:26;11.77;;;10.57;;
27921;SDS011;15261;50.356;10.340;2023-12-14T05:09:51;12.57;;;11.27;;
27921;SDS011;15261;50.356;10.340;2023-12-14T05:12:17;12.70;;;10.93;;
27921;SDS011;15261;50.356;10.340;2023-12-14T05:14:42;16.30;;;13.02;;
27921;SDS011;15261;50.356;10.340;2023-12-14T05:17:08;12.07;;;10.80;;
27921;SDS011;15261;50.356;10.340;2023-12-14T05:19:33;15.27;;;13.68;;
27921;SDS011;15261;50.356;10.340;2023-12-14T05:21:59;16.77;;;14.70;;
27921;SDS011;15261;50.356;10.340;2023-12-14T05:24:25;15.63;;;13.82;;
27921;SDS011;15261;50.356;10.340;2023-12-14T05:26:50;17.70;;;15.03;;
27921;SDS011;15261;50.356;10.340;2023-12-14T05:29:16;30.63;;;21.85;;
27921;SDS011;15261;50.356;10.340;2023-12-14T05:31:42;32.77;;;22.60;;
27921;SDS011;15261;50.356;10.340;2023-12-14T05:34:11;59.55;;;32.10;;
27921;SDS011;15261;50.356;10.340;2023-12-14T05:36:36;36.03;;;21.63;;
27921;SDS011;15261;50.356;10.340;2023-12-14T05:39:02;23.17;;;16.15;;
27921;SDS011;15261;50.356;10.340;2023-12-14T05:41:28;18.43;;;14.43;;
27921;SDS011;15261;50.356;10.340;2023-12-14T05:43:54;14.47;;;12.97;;
27921;SDS011;15261;50.356;10.340;2023-12-14T05:46:21;15.82;;;13.68;;
27921;SDS011;15261;50.356;10.340;2023-12-14T05:48:49;11.93;;;10.73;;
27921;SDS011;15261;50.356;10.340;2023-12-14T05:51:28;18.15;;;16.25;;
27921;SDS011;15261;50.356;10.340;2023-12-14T05:53:57;18.15;;;13.68;;
27921;SDS011;15261;50.356;10.340;2023-12-14T05:56:24;15.10;;;13.48;;
27921;SDS011;15261;50.356;10.340;2023-12-14T05:58:52;16.23;;;13.57;;
27921;SDS011;15261;50.356;10.340;2023-12-14T06:01:18;12.88;;;11.15;;
27921;SDS011;15261;50.356;10.340;2023-12-14T06:03:47;13.43;;;10.93;;
27921;SDS011;15261;50.356;10.340;2023-12-14T06:06:19;14.05;;;11.95;;
27921;SDS011;15261;50.356;10.340;2023-12-14T06:08:45;16.23;;;14.57;;
27921;SDS011;15261;50.356;10.340;2023-12-14T06:11:10;13.50;;;12.10;;
27921;SDS011;15261;50.356;10.340;2023-12-14T06:13:36;14.27;;;11.80;;
27921;SDS011;15261;50.356;10.340;2023-12-14T06:16:02;12.83;;;11.53;;
27921;SDS011;15261;50.356;10.340;2023-12-14T06:18:28;11.37;;;10.07;;
27921;SDS011;15261;50.356;10.340;2023-12-14T06:20:54;9.80;;;8.80;;
27921;SDS011;15261;50.356;10.340;2023-12-14T06:23:20;9.20;;;8.40;;
27921;SDS011;15261;50.356;10.340;2023-12-14T06:25:51;11.48;;;9.18;;
27921;SDS011;15261;50.356;10.340;2023-12-14T06:28:17;10.15;;;9.25;;
27921;SDS011;15261;50.356;10.340;2023-12-14T06:30:42;10.52;;;9.63;;
27921;SDS011;15261;50.356;10.340;2023-12-14T06:33:08;10.15;;;9.15;;
27921;SDS011;15261;50.356;10.340;2023-12-14T06:35:34;9.38;;;8.48;;
27921;SDS011;15261;50.356;10.340;2023-12-14T06:37:59;8.60;;;7.80;;
27921;SDS011;15261;50.356;10.340;2023-12-14T06:40:25;8.45;;;7.65;;
27921;SDS011;15261;50.356;10.340;2023-12-14T06:42:50;8.88;;;8.07;;
27921;SDS011;15261;50.356;10.340;2023-12-14T06:45:16;9.15;;;8.25;;
27921;SDS011;15261;50.356;10.340;2023-12-14T06:50:29;9.70;;;8.47;;
27921;SDS011;15261;50.356;10.340;2023-12-14T06:52:55;9.43;;;8.43;;
27921;SDS011;15261;50.356;10.340;2023-12-14T06:55:20;7.97;;;7.28;;
27921;SDS011;15261;50.356;10.340;2023-12-14T06:57:46;8.18;;;7.38;;
27921;SDS011;15261;50.356;10.340;2023-12-14T07:00:12;7.03;;;6.38;;
27921;SDS011;15261;50.356;10.340;2023-12-14T07:02:38;7.82;;;7.13;;
27921;SDS011;15261;50.356;10.340;2023-12-14T07:05:05;8.02;;;7.22;;
27921;SDS011;15261;50.356;10.340;2023-12-14T07:07:31;7.47;;;6.72;;
27921;SDS011;15261;50.356;10.340;2023-12-14T07:09:56;7.38;;;6.68;;
27921;SDS011;15261;50.356;10.340;2023-12-14T07:12:22;7.80;;;7.00;;
27921;SDS011;15261;50.356;10.340;2023-12-14T07:14:47;8.10;;;7.30;;
27921;SDS011;15261;50.356;10.340;2023-12-14T07:17:13;10.55;;;7.78;;
27921;SDS011;15261;50.356;10.340;2023-12-14T07:19:38;12.97;;;10.67;;
27921;SDS011;15261;50.356;10.340;2023-12-14T07:22:04;19.05;;;13.02;;
27921;SDS011;15261;50.356;10.340;2023-12-14T07:24:29;14.90;;;10.65;;
27921;SDS011;15261;50.356;10.340;2023-12-14T07:26:55;10.88;;;9.77;;
27921;SDS011;15261;50.356;10.340;2023-12-14T07:29:21;12.25;;;10.95;;
27921;SDS011;15261;50.356;10.340;2023-12-14T07:31:47;10.60;;;9.57;;
27921;SDS011;15261;50.356;10.340;2023-12-14T07:34:12;9.02;;;8.13;;
27921;SDS011;15261;50.356;10.340;2023-12-14T07:36:38;11.48;;;9.38;;
27921;SDS011;15261;50.356;10.340;2023-12-14T07:39:03;15.07;;;13.50;;
27921;SDS011;15261;50.356;10.340;2023-12-14T07:41:30;11.02;;;10.02;;
27921;SDS011;15261;50.356;10.340;2023-12-14T07:43:57;10.70;;;9.65;;
27921;SDS011;15261;50.356;10.340;2023-12-14T07:46:23;13.52;;;12.15;;
27921;SDS011;15261;50.356;10.340;2023-12-14T07:48:49;14.35;;;12.95;;
27921;SDS011;15261;50.356;10.340;2023-12-14T07:51:15;15.27;;;13.68;;
27921;SDS011;15261;50.356;10.340;2023-12-14T07:53:40;23.38;;;19.35;;
27921;SDS011;15261;50.356;10.340;2023-12-14T07:56:07;22.20;;;18.27;;
27921;SDS011;15261;50.356;10.340;2023-12-14T07:58:33;26.77;;;20.25;;
27921;SDS011;15261;50.356;10.340;2023-12-14T08:00:59;26.15;;;19.58;;
27921;SDS011;15261;50.356;10.340;2023-12-14T08:03:24;22.30;;;16.48;;
27921;SDS011;15261;50.356;10.340;2023-12-14T08:05:50;18.10;;;13.38;;
27921;SDS011;15261;50.356;10.340;2023-12-14T08:08:16;13.05;;;11.70;;
27921;SDS011;15261;50.356;10.340;2023-12-14T08:10:41;13.73;;;12.38;;
27921;SDS011;15261;50.356;10.340;2023-12-14T08:13:07;14.10;;;12.60;;
27921;SDS011;15261;50.356;10.340;2023-12-14T08:15:32;12.15;;;10.95;;
27921;SDS011;15261;50.356;10.340;2023-12-14T08:17:58;11.05;;;9.95;;
27921;SDS011;15261;50.356;10.340;2023-12-14T08:20:24;10.00;;;9.10;;
27921;SDS011;15261;50.356;10.340;2023-12-14T08:22:49;9.82;;;8.88;;
27921;SDS011;15261;50.356;10.340;2023-12-14T08:25:15;10.52;;;9.15;;
27921;SDS011;15261;50.356;10.340;2023-12-14T08:27:41;10.35;;;8.85;;
27921;SDS011;15261;50.356;10.340;2023-12-14T08:30:07;8.90;;;8.10;;
27921;SDS011;15261;50.356;10.340;2023-12-14T08:32:33;9.35;;;8.45;;
27921;SDS011;15261;50.356;10.340;2023-12-14T08:34:59;10.15;;;7.43;;
27921;SDS011;15261;50.356;10.340;2023-12-14T08:37:25;10.65;;;8.07;;
27921;SDS011;15261;50.356;10.340;2023-12-14T08:39:50;10.63;;;7.10;;
27921;SDS011;15261;50.356;10.340;2023-12-14T08:42:16;8.27;;;7.43;;
27921;SDS011;15261;50.356;10.340;2023-12-14T08:44:41;8.68;;;7.88;;
27921;SDS011;15261;50.356;10.340;2023-12-14T08:47:07;9.50;;;7.55;;
27921;SDS011;15261;50.356;10.340;2023-12-14T08:49:34;9.15;;;8.27;;
27921;SDS011;15261;50.356;10.340;2023-12-14T08:52:00;8.98;;;8.07;;
27921;SDS011;15261;50.356;10.340;2023-12-14T08:54:25;8.50;;;7.63;;
27921;SDS011;15261;50.356;10.340;2023-12-14T08:56:51;8.15;;;7.35;;
27921;SDS011;15261;50.356;10.340;2023-12-14T08:59:17;8.90;;;8.00;;
27921;SDS011;15261;50.356;10.340;2023-12-14T09:01:45;11.35;;;8.23;;
27921;SDS011;15261;50.356;10.340;2023-12-14T09:04:10;10.32;;;8.65;;
27921;SDS011;15261;50.356;10.340;2023-12-14T09:06:36;11.45;;;10.25;;
27921;SDS011;15261;50.356;10.340;2023-12-14T09:09:02;9.80;;;8.80;;
27921;SDS011;15261;50.356;10.340;2023-12-14T09:11:28;9.60;;;8.60;;
27921;SDS011;15261;50.356;10.340;2023-12-14T09:13:54;9.82;;;8.48;;
27921;SDS011;15261;50.356;10.340;2023-12-14T09:16:20;9.27;;;8.35;;
27921;SDS011;15261;50.356;10.340;2023-12-14T09:18:46;11.68;;;8.40;;
27921;SDS011;15261;50.356;10.340;2023-12-14T09:21:12;10.13;;;8.48;;
27921;SDS011;15261;50.356;10.340;2023-12-14T09:23:38;10.13;;;9.10;;
27921;SDS011;15261;50.356;10.340;2023-12-14T09:26:05;9.73;;;8.63;;
27921;SDS011;15261;50.356;10.340;2023-12-14T09:28:31;10.00;;;8.07;;
27921;SDS011;15261;50.356;10.340;2023-12-14T09:30:56;8.50;;;7.72;;
27921;SDS011;15261;50.356;10.340;2023-12-14T09:33:22;10.25;;;9.27;;
27921;SDS011;15261;50.356;10.340;2023-12-14T09:35:47;10.13;;;8.70;;
27921;SDS011;15261;50.356;10.340;2023-12-14T09:38:13;10.47;;;8.70;;
27921;SDS011;15261;50.356;10.340;2023-12-14T09:40:42;9.77;;;8.87;;
27921;SDS011;15261;50.356;10.340;2023-12-14T09:43:08;10.27;;;9.27;;
27921;SDS011;15261;50.356;10.340;2023-12-14T09:45:34;10.40;;;9.05;;
27921;SDS011;15261;50.356;10.340;2023-12-14T09:48:03;9.27;;;8.27;;
27921;SDS011;15261;50.356;10.340;2023-12-14T09:50:30;9.18;;;8.27;;
27921;SDS011;15261;50.356;10.340;2023-12-14T09:52:56;10.98;;;9.88;;
27921;SDS011;15261;50.356;10.340;2023-12-14T09:55:22;11.52;;;8.52;;
27921;SDS011;15261;50.356;10.340;2023-12-14T09:57:47;10.80;;;9.13;;
27921;SDS011;15261;50.356;10.340;2023-12-14T10:00:13;9.85;;;8.85;;
27921;SDS011;15261;50.356;10.340;2023-12-14T10:03:06;10.95;;;9.95;;
27921;SDS011;15261;50.356;10.340;2023-12-14T10:05:43;13.80;;;11.52;;
27921;SDS011;15261;50.356;10.340;2023-12-14T10:08:08;12.70;;;11.43;;
27921;SDS011;15261;50.356;10.340;2023-12-14T10:10:34;11.70;;;10.50;;
27921;SDS011;15261;50.356;10.340;2023-12-14T10:12:59;12.63;;;11.05;;
27921;SDS011;15261;50.356;10.340;2023-12-14T10:15:26;11.20;;;9.95;;
27921;SDS011;15261;50.356;10.340;2023-12-14T10:17:52;10.27;;;9.25;;
27921;SDS011;15261;50.356;10.340;2023-12-14T10:20:22;10.32;;;9.25;;
27921;SDS011;15261;50.356;10.340;2023-12-14T10:22:48;15.13;;;9.40;;
27921;SDS011;15261;50.356;10.340;2023-12-14T10:25:14;12.80;;;10.82;;
27921;SDS011;15261;50.356;10.340;2023-12-14T10:27:40;11.93;;;10.20;;
27921;SDS011;15261;50.356;10.340;2023-12-14T10:30:06;12.30;;;9.85;;
27921;SDS011;15261;50.356;10.340;2023-12-14T10:32:33;11.30;;;10.20;;
27921;SDS011;15261;50.356;10.340;2023-12-14T10:34:59;11.65;;;10.45;;
27921;SDS011;15261;50.356;10.340;2023-12-14T10:37:25;11.30;;;9.55;;
27921;SDS011;15261;50.356;10.340;2023-12-14T10:39:51;9.75;;;8.82;;
27921;SDS011;15261;50.356;10.340;2023-12-14T10:42:19;11.23;;;9.85;;
27921;SDS011;15261;50.356;10.340;2023-12-14T10:44:51;11.05;;;9.80;;
27921;SDS011;15261;50.356;10.340;2023-12-14T10:47:18;12.20;;;9.73;;
27921;SDS011;15261;50.356;10.340;2023-12-14T10:49:45;11.35;;;10.15;;
27921;SDS011;15261;50.356;10.340;2023-12-14T10:52:15;11.65;;;9.82;;
27921;SDS011;15261;50.356;10.340;2023-12-14T10:54:42;11.38;;;9.77;;
27921;SDS011;15261;50.356;10.340;2023-12-14T10:57:09;11.82;;;10.32;;
27921;SDS011;15261;50.356;10.340;2023-12-14T10:59:34;12.85;;;10.40;;
27921;SDS011;15261;50.356;10.340;2023-12-14T11:02:00;11.73;;;10.45;;
27921;SDS011;15261;50.356;10.340;2023-12-14T11:05:21;12.30;;;10.18;;
27921;SDS011;15261;50.356;10.340;2023-12-14T11:10:11;12.15;;;9.85;;
27921;SDS011;15261;50.356;10.340;2023-12-14T11:12:37;11.60;;;10.40;;
27921;SDS011;15261;50.356;10.340;2023-12-14T11:15:03;11.32;;;10.23;;
27921;SDS011;15261;50.356;10.340;2023-12-14T11:17:32;13.75;;;10.02;;
27921;SDS011;15261;50.356;10.340;2023-12-14T11:20:23;11.10;;;9.90;;
27921;SDS011;15261;50.356;10.340;2023-12-14T11:22:55;10.55;;;9.45;;
27921;SDS011;15261;50.356;10.340;2023-12-14T11:25:22;10.60;;;9.50;;
27921;SDS011;15261;50.356;10.340;2023-12-14T11:27:49;13.18;;;11.55;;
27921;SDS011;15261;50.356;10.340;2023-12-14T11:30:15;14.93;;;11.43;;
27921;SDS011;15261;50.356;10.340;2023-12-14T11:32:41;19.13;;;13.77;;
27921;SDS011;15261;50.356;10.340;2023-12-14T11:35:07;14.82;;;11.73;;
27921;SDS011;15261;50.356;10.340;2023-12-14T11:37:35;12.90;;;10.55;;
27921;SDS011;15261;50.356;10.340;2023-12-14T11:40:01;11.30;;;9.85;;
27921;SDS011;15261;50.356;10.340;2023-12-14T11:42:30;11.55;;;9.60;;
27921;SDS011;15261;50.356;10.340;2023-12-14T11:44:56;10.00;;;9.00;;
27921;SDS011;15261;50.356;10.340;2023-12-14T11:47:22;11.63;;;9.18;;
27921;SDS011;15261;50.356;10.340;2023-12-14T11:49:47;9.55;;;8.60;;
27921;SDS011;15261;50.356;10.340;2023-12-14T11:52:13;9.95;;;8.70;;
27921;SDS011;15261;50.356;10.340;2023-12-14T11:54:39;11.00;;;8.30;;
27921;SDS011;15261;50.356;10.340;2023-12-14T11:57:04;7.75;;;7.05;;
27921;SDS011;15261;50.356;10.340;2023-12-14T11:59:33;6.68;;;6.07;;
27921;SDS011;15261;50.356;10.340;2023-12-14T12:02:00;6.20;;;5.60;;
27921;SDS011;15261;50.356;10.340;2023-12-14T12:04:26;6.25;;;5.65;;
27921;SDS011;15261;50.356;10.340;2023-12-14T12:06:59;6.60;;;6.03;;
27921;SDS011;15261;50.356;10.340;2023-12-14T12:09:41;5.93;;;5.32;;
27921;SDS011;15261;50.356;10.340;2023-12-14T12:12:11;7.10;;;4.38;;
27921;SDS011;15261;50.356;10.340;2023-12-14T12:14:38;4.95;;;4.00;;
27921;SDS011;15261;50.356;10.340;2023-12-14T12:17:04;4.40;;;4.07;;
27921;SDS011;15261;50.356;10.340;2023-12-14T12:19:34;4.60;;;4.20;;
27921;SDS011;15261;50.356;10.340;2023-12-14T12:22:01;3.63;;;3.33;;
27921;SDS011;15261;50.356;10.340;2023-12-14T12:24:27;3.38;;;3.17;;
27921;SDS011;15261;50.356;10.340;2023-12-14T12:26:53;3.28;;;3.08;;
27921;SDS011;15261;50.356;10.340;2023-12-14T12:29:19;3.08;;;2.83;;
27921;SDS011;15261;50.356;10.340;2023-12-14T12:31:44;3.00;;;2.80;;
27921;SDS011;15261;50.356;10.340;2023-12-14T12:34:10;3.00;;;2.80;;
27921;SDS011;15261;50.356;10.340;2023-12-14T12:36:36;3.40;;;3.17;;
27921;SDS011;15261;50.356;10.340;2023-12-14T12:39:02;3.13;;;2.85;;
27921;SDS011;15261;50.356;10.340;2023-12-14T12:41:28;3.25;;;2.45;;
27921;SDS011;15261;50.356;10.340;2023-12-14T12:46:41;2.35;;;2.15;;
27921;SDS011;15261;50.356;10.340;2023-12-14T12:49:07;2.90;;;2.15;;
27921;SDS011;15261;50.356;10.340;2023-12-14T12:51:33;4.22;;;1.90;;
27921;SDS011;15261;50.356;10.340;2023-12-14T12:53:58;2.00;;;1.90;;
27921;SDS011;15261;50.356;10.340;2023-12-14T12:56:27;2.08;;;1.98;;
27921;SDS011;15261;50.356;10.340;2023-12-14T12:58:53;1.80;;;1.70;;
27921;SDS011;15261;50.356;10.340;2023-12-14T13:01:22;1.90;;;1.80;;
27921;SDS011;15261;50.356;10.340;2023-12-14T13:03:53;3.15;;;2.40;;
27921;SDS011;15261;50.356;10.340;2023-12-14T13:06:20;2.13;;;1.90;;
27921;SDS011;15261;50.356;10.340;2023-12-14T13:08:46;2.53;;;2.33;;
27921;SDS011;15261;50.356;10.340;2023-12-14T13:11:11;5.30;;;3.40;;
27921;SDS011;15261;50.356;10.340;2023-12-14T13:13:37;2.83;;;2.45;;
27921;SDS011;15261;50.356;10.340;2023-12-14T13:16:03;2.13;;;2.03;;
27921;SDS011;15261;50.356;10.340;2023-12-14T13:18:28;2.13;;;2.00;;
27921;SDS011;15261;50.356;10.340;2023-12-14T13:20:54;2.72;;;1.85;;
27921;SDS011;15261;50.356;10.340;2023-12-14T13:23:19;2.13;;;2.03;;
27921;SDS011;15261;50.356;10.340;2023-12-14T13:25:45;3.20;;;2.15;;
27921;SDS011;15261;50.356;10.340;2023-12-14T13:28:11;2.40;;;2.30;;
27921;SDS011;15261;50.356;10.340;2023-12-14T13:30:37;2.47;;;2.28;;
27921;SDS011;15261;50.356;10.340;2023-12-14T13:33:02;2.40;;;2.30;;
27921;SDS011;15261;50.356;10.340;2023-12-14T13:35:29;2.92;;;2.65;;
27921;SDS011;15261;50.356;10.340;2023-12-14T13:37:54;2.97;;;2.78;;
27921;SDS011;15261;50.356;10.340;2023-12-14T13:40:20;3.47;;;3.17;;
27921;SDS011;15261;50.356;10.340;2023-12-14T13:42:46;5.90;;;4.55;;
27921;SDS011;15261;50.356;10.340;2023-12-14T13:45:12;12.20;;;10.13;;
27921;SDS011;15261;50.356;10.340;2023-12-14T13:47:38;8.23;;;6.20;;
27921;SDS011;15261;50.356;10.340;2023-12-14T13:50:03;21.25;;;14.80;;
27921;SDS011;15261;50.356;10.340;2023-12-14T13:52:29;15.32;;;10.15;;
27921;SDS011;15261;50.356;10.340;2023-12-14T13:54:55;22.40;;;14.63;;
27921;SDS011;15261;50.356;10.340;2023-12-14T13:57:21;13.52;;;9.30;;
27921;SDS011;15261;50.356;10.340;2023-12-14T13:59:47;15.30;;;10.65;;
27921;SDS011;15261;50.356;10.340;2023-12-14T14:02:13;12.40;;;8.70;;
27921;SDS011;15261;50.356;10.340;2023-12-14T14:04:38;10.30;;;8.10;;
27921;SDS011;15261;50.356;10.340;2023-12-14T14:07:04;16.80;;;11.85;;
27921;SDS011;15261;50.356;10.340;2023-12-14T14:09:29;28.92;;;22.45;;
27921;SDS011;15261;50.356;10.340;2023-12-14T14:11:55;25.80;;;19.80;;
27921;SDS011;15261;50.356;10.340;2023-12-14T14:14:21;12.73;;;11.43;;
27921;SDS011;15261;50.356;10.340;2023-12-14T14:16:48;7.35;;;5.32;;
27921;SDS011;15261;50.356;10.340;2023-12-14T14:19:15;7.35;;;6.75;;
27921;SDS011;15261;50.356;10.340;2023-12-14T14:21:41;6.07;;;5.53;;
27921;SDS011;15261;50.356;10.340;2023-12-14T14:24:07;7.40;;;6.38;;
27921;SDS011;15261;50.356;10.340;2023-12-14T14:26:32;4.40;;;4.00;;
27921;SDS011;15261;50.356;10.340;2023-12-14T14:31:57;5.20;;;4.70;;
27921;SDS011;15261;50.356;10.340;2023-12-14T14:34:23;11.50;;;9.90;;
27921;SDS011;15261;50.356;10.340;2023-12-14T14:36:48;5.50;;;5.00;;
27921;SDS011;15261;50.356;10.340;2023-12-14T14:39:14;3.05;;;2.83;;
27921;SDS011;15261;50.356;10.340;2023-12-14T14:41:43;2.70;;;2.50;;
27921;SDS011;15261;50.356;10.340;2023-12-14T14:44:09;2.08;;;1.98;;
27921;SDS011;15261;50.356;10.340;2023-12-14T14:52:39;6.53;;;5.88;;
27921;SDS011;15261;50.356;10.340;2023-12-14T15:12:25;2.60;;;2.40;;
27921;SDS011;15261;50.356;10.340;2023-12-14T15:15:28;2.53;;;2.33;;
27921;SDS011;15261;50.356;10.340;2023-12-14T15:18:02;2.47;;;2.33;;
27921;SDS011;15261;50.356;10.340;2023-12-14T15:20:49;2.30;;;2.10;;
27921;SDS011;15261;50.356;10.340;2023-12-14T15:26:44;2.60;;;2.40;;
27921;SDS011;15261;50.356;10.340;2023-12-14T15:33:12;2.30;;;2.20;;
27921;SDS011;15261;50.356;10.340;2023-12-14T15:39:29;2.63;;;2.33;;
27921;SDS011;15261;50.356;10.340;2023-12-14T15:42:39;2.85;;;2.65;;
27921;SDS011;15261;50.356;10.340;2023-12-14T15:52:37;3.70;;;3.33;;
27921;SDS011;15261;50.356;10.340;2023-12-14T17:05:38;7.60;;;6.90;;
27921;SDS011;15261;50.356;10.340;2023-12-14T17:17:39;8.60;;;7.47;;
27921;SDS011;15261;50.356;10.340;2023-12-14T17:20:05;8.10;;;7.30;;
27921;SDS011;15261;50.356;10.340;2023-12-14T17:25:10;7.83;;;7.13;;